Main page
METAR-TAF:

METAR-TAF

Airports :

Çiğli Air Base

Izmir, Turkey

latitude: 38-30N, longitude: 027-01E, elevation: 5 m

METAR: missing

Time: 14:46 (11:46 UTC)

Forecast

The report was made 4 hours and 6 minutes ago, at 07:40 UTC
Forecast valid from 21 at 09 UTC to 21 at 18 UTC
Wind 13 kt from the Southeast
Visibility 10 km or more
Scattered clouds at a height of 3500 ft
Broken clouds at a height of 10000 ft
light rain showers
Temporary
from 21 at 09 UTC to 21 at 12 UTC
Few clouds at a height of 2000 ft, Cumulonimbus.
Broken clouds at a height of 3000 ft
thunderstorm, light rain
Probability 30%
from 21 at 12 UTC to 21 at 15 UTC
Few clouds at a height of 2500 ft, Cumulonimbus.
Broken clouds at a height of 3000 ft
thunderstorm, light rain

TAF: LTBL 210740Z 2109/2118 14013KT 9999 -SHRA SCT035 BKN100 TEMPO 2109/2112 -TSRA FEW020CB BKN030 PROB30 2112/2115 -TSRA FEW025CB BKN030

Weather observations and forecasts of more than 4000 airports (METAR and TAF reports).

The available stations are represented by yellow and red dots on the map.

Hover mouse over dot to see the name of the station.

Then click to see weather observations and forecasts.

To change the map : click on the green buttons with a black cross to zoom in, on the green button with a dash to zoom out, or on the green arrows for adjacent maps.


METAR-TAF: